Time;durP1;ratioP1;P1;durP2;ratioP2;P2;SDS_P1;SDS_P2;PMS_P1;PMS_P2;Temp;Humidity;BMP_temperature;BMP_pressure;BME280_temperature;BME280_humidity;BME280_pressure;Samples;Min_cycle;Max_cycle;Signal;HPM_P1;HPM_P2
2022/07/21 00:01:15;;;;;;;14.37;11.10;;;;;;;;;;4974207;28;20205;-42
2022/07/21 00:03:41;;;;;;;15.60;11.40;;;;;;;;;;4973137;28;20181;-42
2022/07/21 00:06:08;;;;;;;18.13;11.70;;;;;;;;;;4973904;28;20277;-42
2022/07/21 00:08:34;;;;;;;18.00;11.77;;;;;;;;;;4971628;28;20590;-42
2022/07/21 00:11:00;;;;;;;15.60;11.33;;;;;;;;;;4974029;28;20181;-42
2022/07/21 00:13:26;;;;;;;15.70;11.53;;;;;;;;;;4975877;28;20182;-42
2022/07/21 00:15:52;;;;;;;18.37;11.50;;;;;;;;;;4973217;28;20427;-43
2022/07/21 00:18:19;;;;;;;15.40;11.13;;;;;;;;;;4972204;28;20504;-42
2022/07/21 00:20:45;;;;;;;14.13;10.40;;;;;;;;;;4975123;28;20209;-42
2022/07/21 00:23:12;;;;;;;14.40;11.13;;;;;;;;;;4977111;28;20429;-42
2022/07/21 00:25:38;;;;;;;17.33;11.43;;;;;;;;;;4973826;28;20820;-42
2022/07/21 00:28:05;;;;;;;16.33;11.47;;;;;;;;;;4974423;28;20642;-42
2022/07/21 00:30:31;;;;;;;16.57;11.10;;;;;;;;;;4975630;28;20547;-42
2022/07/21 00:32:58;;;;;;;14.93;11.27;;;;;;;;;;4975301;28;20176;-42
2022/07/21 00:35:24;;;;;;;16.27;11.60;;;;;;;;;;4975050;28;20666;-42
2022/07/21 00:37:50;;;;;;;16.83;11.40;;;;;;;;;;4978810;28;20514;-42
2022/07/21 00:40:16;;;;;;;15.43;11.17;;;;;;;;;;4980236;28;20232;-43
2022/07/21 00:42:43;;;;;;;14.90;10.40;;;;;;;;;;4976181;28;20177;-43
2022/07/21 00:45:09;;;;;;;15.20;10.80;;;;;;;;;;4979445;28;20173;-42
2022/07/21 00:47:36;;;;;;;15.60;10.80;;;;;;;;;;4980326;28;20511;-42
2022/07/21 00:50:04;;;;;;;15.67;10.93;;;;;;;;;;4977074;28;21332;-42
2022/07/21 00:52:30;;;;;;;16.40;10.93;;;;;;;;;;4978965;28;20229;-42
2022/07/21 00:54:56;;;;;;;15.10;10.27;;;;;;;;;;4980137;28;20309;-42
2022/07/21 00:57:22;;;;;;;11.70;10.00;;;;;;;;;;4981823;28;20180;-41
2022/07/21 00:59:48;;;;;;;14.17;10.63;;;;;;;;;;4980253;28;20202;-41
2022/07/21 01:02:15;;;;;;;15.63;10.40;;;;;;;;;;4978165;28;20174;-41
2022/07/21 01:04:41;;;;;;;13.77;9.43;;;;;;;;;;4982152;28;21229;-41
2022/07/21 01:07:07;;;;;;;14.73;10.17;;;;;;;;;;4979723;28;20488;-44
2022/07/21 01:09:35;;;;;;;17.27;10.37;;;;;;;;;;4978502;28;20191;-44
2022/07/21 01:12:02;;;;;;;16.33;10.50;;;;;;;;;;4981929;28;20469;-44
2022/07/21 01:14:28;;;;;;;13.27;9.90;;;;;;;;;;4980746;28;20591;-43
2022/07/21 01:16:54;;;;;;;14.20;9.50;;;;;;;;;;4979108;28;20713;-44
2022/07/21 01:19:20;;;;;;;12.50;9.53;;;;;;;;;;4976836;28;20193;-42
2022/07/21 01:21:47;;;;;;;11.73;9.43;;;;;;;;;;4979753;28;20483;-42
2022/07/21 01:24:14;;;;;;;12.60;8.93;;;;;;;;;;4977262;28;20624;-42
2022/07/21 01:26:41;;;;;;;15.60;9.63;;;;;;;;;;4980347;28;20493;-42
2022/07/21 01:29:08;;;;;;;13.53;9.57;;;;;;;;;;4976378;28;20201;-41
2022/07/21 01:31:35;;;;;;;14.53;10.17;;;;;;;;;;4977086;28;20725;-42
2022/07/21 01:34:01;;;;;;;14.53;11.77;;;;;;;;;;4979320;28;20184;-42
2022/07/21 01:36:27;;;;;;;22.07;12.10;;;;;;;;;;4980828;28;20208;-42
2022/07/21 01:41:38;;;;;;;14.17;11.67;;;;;;;;;;4978594;28;20192;-43
2022/07/21 01:44:05;;;;;;;15.30;11.10;;;;;;;;;;4980430;28;20260;-42
2022/07/21 01:46:32;;;;;;;15.40;11.13;;;;;;;;;;4978632;28;20434;-43
2022/07/21 01:48:58;;;;;;;18.57;12.33;;;;;;;;;;4977598;28;21107;-42
2022/07/21 01:51:24;;;;;;;17.53;13.33;;;;;;;;;;4979220;28;20292;-42
2022/07/21 01:53:51;;;;;;;17.07;13.30;;;;;;;;;;4979150;28;20224;-43
2022/07/21 01:56:20;;;;;;;13.33;11.90;;;;;;;;;;4978558;28;20209;-42
2022/07/21 01:58:46;;;;;;;17.20;13.20;;;;;;;;;;4977436;28;20188;-42
2022/07/21 02:01:12;;;;;;;16.07;12.30;;;;;;;;;;4978869;28;20216;-42
2022/07/21 02:03:38;;;;;;;16.70;12.40;;;;;;;;;;4977953;28;20706;-43
2022/07/21 02:06:05;;;;;;;17.57;12.97;;;;;;;;;;4977499;28;20188;-43
2022/07/21 02:08:31;;;;;;;14.73;12.77;;;;;;;;;;4980171;28;20276;-43
2022/07/21 02:10:58;;;;;;;21.23;12.37;;;;;;;;;;4976953;28;20181;-43
2022/07/21 02:13:24;;;;;;;20.27;13.20;;;;;;;;;;4979282;28;21094;-43
2022/07/21 02:15:51;;;;;;;16.07;12.47;;;;;;;;;;4981840;28;20186;-43
2022/07/21 02:18:17;;;;;;;18.87;12.07;;;;;;;;;;4979387;28;20197;-43
2022/07/21 02:20:44;;;;;;;15.40;11.87;;;;;;;;;;4980102;28;20204;-43
2022/07/21 02:23:11;;;;;;;15.43;11.87;;;;;;;;;;4978851;28;20181;-43
2022/07/21 02:25:37;;;;;;;16.73;12.13;;;;;;;;;;4982041;28;20192;-43
2022/07/21 02:28:03;;;;;;;17.50;11.77;;;;;;;;;;4979675;28;21118;-43
2022/07/21 02:30:29;;;;;;;16.00;11.57;;;;;;;;;;4978695;28;20189;-43
2022/07/21 02:32:55;;;;;;;18.43;11.00;;;;;;;;;;4982866;28;20181;-43
2022/07/21 02:35:22;;;;;;;14.73;11.63;;;;;;;;;;4982541;28;20868;-43
2022/07/21 02:37:48;;;;;;;12.93;10.40;;;;;;;;;;4977610;28;20227;-43
2022/07/21 02:40:14;;;;;;;13.10;10.70;;;;;;;;;;4975195;28;20660;-43
2022/07/21 02:42:40;;;;;;;14.87;10.87;;;;;;;;;;4976858;28;20351;-43
2022/07/21 02:45:07;;;;;;;16.10;11.03;;;;;;;;;;4975858;28;20526;-43
2022/07/21 02:47:33;;;;;;;13.67;10.77;;;;;;;;;;4972730;28;20757;-43
2022/07/21 02:49:59;;;;;;;13.43;10.20;;;;;;;;;;4975283;28;20748;-42
2022/07/21 02:52:25;;;;;;;16.53;10.63;;;;;;;;;;4975245;28;20200;-43
2022/07/21 02:54:51;;;;;;;15.87;9.67;;;;;;;;;;4971474;28;20181;-43
2022/07/21 02:57:17;;;;;;;11.37;9.23;;;;;;;;;;4973098;28;20271;-40
2022/07/21 02:59:44;;;;;;;16.30;9.97;;;;;;;;;;4972930;28;20305;-42
2022/07/21 03:02:10;;;;;;;15.13;10.57;;;;;;;;;;4974857;28;20780;-42
2022/07/21 03:04:36;;;;;;;13.57;10.10;;;;;;;;;;4970640;28;20185;-42
2022/07/21 03:07:02;;;;;;;14.63;9.87;;;;;;;;;;4975228;28;20165;-42
2022/07/21 03:09:28;;;;;;;12.43;9.80;;;;;;;;;;4973874;28;20667;-42
2022/07/21 03:11:54;;;;;;;13.23;10.27;;;;;;;;;;4972910;28;20188;-42
2022/07/21 03:14:20;;;;;;;12.80;9.93;;;;;;;;;;4974525;28;20180;-41
2022/07/21 03:16:46;;;;;;;10.57;9.27;;;;;;;;;;4974432;28;20549;-43
2022/07/21 03:19:13;;;;;;;12.57;10.00;;;;;;;;;;4973890;28;20764;-43
2022/07/21 03:21:39;;;;;;;13.10;9.57;;;;;;;;;;4972835;28;20183;-43
2022/07/21 03:24:05;;;;;;;13.60;10.47;;;;;;;;;;4976190;28;20277;-42
2022/07/21 03:26:31;;;;;;;16.07;9.57;;;;;;;;;;4975228;28;20239;-44
2022/07/21 03:28:57;;;;;;;13.23;9.67;;;;;;;;;;4973187;28;20169;-44
2022/07/21 03:31:23;;;;;;;12.80;9.70;;;;;;;;;;4972378;28;20191;-44
2022/07/21 03:33:49;;;;;;;14.03;10.13;;;;;;;;;;4973835;28;20188;-44
2022/07/21 03:36:15;;;;;;;14.67;9.63;;;;;;;;;;4975415;28;20180;-43
2022/07/21 03:38:42;;;;;;;15.20;10.63;;;;;;;;;;4972927;28;20177;-42
2022/07/21 03:41:08;;;;;;;13.00;10.00;;;;;;;;;;4974284;28;20196;-41
2022/07/21 03:43:34;;;;;;;14.37;10.73;;;;;;;;;;4977572;28;20508;-42
2022/07/21 03:46:00;;;;;;;13.37;11.13;;;;;;;;;;4978784;28;20661;-42
2022/07/21 03:48:26;;;;;;;15.20;10.50;;;;;;;;;;4975965;28;20174;-42
2022/07/21 03:50:52;;;;;;;14.20;10.83;;;;;;;;;;4973043;28;20189;-42
2022/07/21 03:53:18;;;;;;;16.23;11.57;;;;;;;;;;4978085;28;20468;-42
2022/07/21 03:55:45;;;;;;;16.63;11.30;;;;;;;;;;4975663;28;20186;-42
2022/07/21 03:58:12;;;;;;;14.43;11.07;;;;;;;;;;4975326;28;20264;-42
2022/07/21 04:00:40;;;;;;;18.00;11.10;;;;;;;;;;4972406;28;21271;-42
2022/07/21 04:03:07;;;;;;;17.83;11.20;;;;;;;;;;4973006;28;20177;-43
2022/07/21 04:05:33;;;;;;;15.53;10.60;;;;;;;;;;4971810;28;20182;-42
2022/07/21 04:08:00;;;;;;;22.00;10.70;;;;;;;;;;4973974;28;20836;-42
2022/07/21 04:10:27;;;;;;;22.50;12.13;;;;;;;;;;4975477;28;20566;-42
2022/07/21 04:12:54;;;;;;;18.77;11.83;;;;;;;;;;4983480;28;20670;-42
2022/07/21 04:15:20;;;;;;;18.07;11.73;;;;;;;;;;4976805;28;20223;-41
2022/07/21 04:17:47;;;;;;;17.40;11.33;;;;;;;;;;4978421;28;20306;-42
2022/07/21 04:20:13;;;;;;;19.47;11.87;;;;;;;;;;4982273;28;20197;-42
2022/07/21 04:22:40;;;;;;;23.17;12.60;;;;;;;;;;4979402;28;20173;-42
2022/07/21 04:25:06;;;;;;;18.93;12.33;;;;;;;;;;4990235;28;20613;-42
2022/07/21 04:27:33;;;;;;;15.67;11.40;;;;;;;;;;4979208;28;20201;-42
2022/07/21 04:29:59;;;;;;;21.10;11.63;;;;;;;;;;4980902;28;20254;-42
2022/07/21 04:32:25;;;;;;;16.77;11.20;;;;;;;;;;4978790;28;20173;-42
2022/07/21 04:34:51;;;;;;;22.57;11.70;;;;;;;;;;4977468;28;20185;-42
2022/07/21 04:37:17;;;;;;;13.50;10.27;;;;;;;;;;4976886;28;20707;-42
2022/07/21 04:39:43;;;;;;;16.67;11.33;;;;;;;;;;4980168;28;20320;-42
2022/07/21 04:42:09;;;;;;;15.17;10.47;;;;;;;;;;4976885;28;20212;-42
2022/07/21 04:44:35;;;;;;;13.33;10.17;;;;;;;;;;4977981;28;20173;-42
2022/07/21 04:47:02;;;;;;;16.90;11.67;;;;;;;;;;4980710;28;20723;-42
2022/07/21 04:49:28;;;;;;;18.90;11.23;;;;;;;;;;4981691;28;20460;-41
2022/07/21 04:51:54;;;;;;;13.57;10.57;;;;;;;;;;4975703;28;20243;-42
2022/07/21 04:54:20;;;;;;;12.97;10.70;;;;;;;;;;4976270;28;20177;-42
2022/07/21 04:56:46;;;;;;;12.23;10.03;;;;;;;;;;4978537;28;21157;-42
2022/07/21 04:59:12;;;;;;;14.83;11.10;;;;;;;;;;4981348;28;20172;-42
2022/07/21 05:01:38;;;;;;;20.53;12.07;;;;;;;;;;4978668;28;20596;-42
2022/07/21 05:04:05;;;;;;;16.10;11.30;;;;;;;;;;4977031;28;20185;-44
2022/07/21 05:06:32;;;;;;;15.77;11.17;;;;;;;;;;4981693;28;20166;-42
2022/07/21 05:08:58;;;;;;;15.47;11.03;;;;;;;;;;4980475;28;20226;-42
2022/07/21 05:11:24;;;;;;;15.93;11.60;;;;;;;;;;4982273;28;20176;-43
2022/07/21 05:13:50;;;;;;;19.73;11.97;;;;;;;;;;4986843;28;20177;-42
2022/07/21 05:16:17;;;;;;;12.73;10.73;;;;;;;;;;4977958;28;20177;-42
2022/07/21 05:18:43;;;;;;;16.90;11.97;;;;;;;;;;4980323;28;20907;-41
2022/07/21 05:21:09;;;;;;;19.57;12.23;;;;;;;;;;4974361;28;20432;-42
2022/07/21 05:23:35;;;;;;;18.20;12.30;;;;;;;;;;4977107;28;20547;-42
2022/07/21 05:26:01;;;;;;;19.17;13.13;;;;;;;;;;4979575;28;20182;-43
2022/07/21 05:28:28;;;;;;;19.27;12.00;;;;;;;;;;4978622;28;21167;-43
2022/07/21 05:30:54;;;;;;;15.43;11.53;;;;;;;;;;4975183;28;20185;-43
2022/07/21 05:33:20;;;;;;;17.07;11.37;;;;;;;;;;4978414;28;20220;-42
2022/07/21 05:35:46;;;;;;;15.10;11.03;;;;;;;;;;4978837;28;20335;-43
2022/07/21 05:38:12;;;;;;;18.83;11.47;;;;;;;;;;4982574;28;20251;-43
2022/07/21 05:40:39;;;;;;;14.30;11.37;;;;;;;;;;4979312;28;20554;-44
2022/07/21 05:43:05;;;;;;;13.37;10.80;;;;;;;;;;4989118;28;20480;-42
2022/07/21 05:45:31;;;;;;;14.93;10.10;;;;;;;;;;4991286;28;20173;-41
2022/07/21 05:47:57;;;;;;;13.77;10.20;;;;;;;;;;4991366;28;20608;-42
2022/07/21 05:50:23;;;;;;;13.90;10.03;;;;;;;;;;4989394;28;20259;-44
2022/07/21 05:52:49;;;;;;;18.37;10.80;;;;;;;;;;4989209;28;20189;-42
2022/07/21 05:55:15;;;;;;;12.57;9.83;;;;;;;;;;4990948;28;20214;-43
2022/07/21 05:57:42;;;;;;;17.97;10.70;;;;;;;;;;4990711;28;20689;-41
2022/07/21 06:00:08;;;;;;;19.20;11.30;;;;;;;;;;4984798;28;20209;-42
2022/07/21 06:02:34;;;;;;;16.37;11.70;;;;;;;;;;4987229;28;20716;-42
2022/07/21 06:05:00;;;;;;;14.50;10.87;;;;;;;;;;4992022;28;20205;-41
2022/07/21 06:07:27;;;;;;;16.57;11.57;;;;;;;;;;4992545;28;20422;-42
2022/07/21 06:09:53;;;;;;;16.80;10.73;;;;;;;;;;4985128;28;20910;-42
2022/07/21 06:12:19;;;;;;;18.20;11.70;;;;;;;;;;4988840;28;20351;-42
2022/07/21 06:14:45;;;;;;;15.63;10.53;;;;;;;;;;4991200;28;20196;-44
2022/07/21 06:17:11;;;;;;;17.13;10.93;;;;;;;;;;4986641;28;20176;-42
2022/07/21 06:19:37;;;;;;;16.20;11.40;;;;;;;;;;4985830;28;20701;-42
2022/07/21 06:22:03;;;;;;;15.13;11.57;;;;;;;;;;4988385;28;20180;-42
2022/07/21 06:24:30;;;;;;;15.57;10.30;;;;;;;;;;4989083;28;20771;-42
2022/07/21 06:26:56;;;;;;;14.73;11.93;;;;;;;;;;4987967;28;20437;-42
2022/07/21 06:29:22;;;;;;;15.43;11.20;;;;;;;;;;4988073;28;20176;-42
2022/07/21 06:31:48;;;;;;;15.10;10.33;;;;;;;;;;4987150;28;20459;-42
2022/07/21 06:34:14;;;;;;;14.70;11.07;;;;;;;;;;4990127;28;20181;-42
2022/07/21 06:36:41;;;;;;;17.50;9.83;;;;;;;;;;4987341;28;20731;-42
2022/07/21 06:39:07;;;;;;;19.10;10.97;;;;;;;;;;4984907;28;20435;-42
2022/07/21 06:41:33;;;;;;;15.37;9.67;;;;;;;;;;4987426;28;20970;-42
2022/07/21 06:43:59;;;;;;;15.73;9.97;;;;;;;;;;4991528;28;20590;-42
2022/07/21 06:46:25;;;;;;;13.43;9.13;;;;;;;;;;4986736;28;20177;-42
2022/07/21 06:48:51;;;;;;;15.67;9.93;;;;;;;;;;4987636;28;20843;-42
2022/07/21 06:51:17;;;;;;;15.20;9.40;;;;;;;;;;4988593;28;20185;-42
2022/07/21 06:53:44;;;;;;;14.00;9.73;;;;;;;;;;4988665;28;20227;-42
2022/07/21 06:56:10;;;;;;;13.00;10.17;;;;;;;;;;4989515;28;20215;-42
2022/07/21 06:58:36;;;;;;;16.13;10.00;;;;;;;;;;4985327;28;20177;-42
2022/07/21 07:01:02;;;;;;;14.90;9.27;;;;;;;;;;4989512;28;20235;-42
2022/07/21 07:03:28;;;;;;;16.30;10.43;;;;;;;;;;4987465;28;20402;-42
2022/07/21 07:05:54;;;;;;;12.47;9.40;;;;;;;;;;4984620;28;20264;-42
2022/07/21 07:08:20;;;;;;;19.20;10.40;;;;;;;;;;4985889;28;20185;-41
2022/07/21 07:10:47;;;;;;;17.33;9.93;;;;;;;;;;4990587;28;20229;-41
2022/07/21 07:13:15;;;;;;;15.67;10.60;;;;;;;;;;4988619;28;20697;-42
2022/07/21 07:15:41;;;;;;;15.00;10.30;;;;;;;;;;4985771;28;20181;-40
2022/07/21 07:18:07;;;;;;;17.20;10.93;;;;;;;;;;4985331;28;20652;-42
2022/07/21 07:20:33;;;;;;;15.47;9.67;;;;;;;;;;4989212;28;20233;-42
2022/07/21 07:22:59;;;;;;;18.20;10.27;;;;;;;;;;4988336;28;20187;-42
2022/07/21 07:25:25;;;;;;;17.10;9.90;;;;;;;;;;4989105;28;20177;-42
2022/07/21 07:27:54;;;;;;;16.10;10.03;;;;;;;;;;4985161;28;20978;-42
2022/07/21 07:30:20;;;;;;;16.03;9.67;;;;;;;;;;4986560;28;20283;-42
2022/07/21 07:32:49;;;;;;;12.03;9.00;;;;;;;;;;4988136;28;20465;-42
2022/07/21 07:35:15;;;;;;;15.80;10.13;;;;;;;;;;4983689;28;20831;-41
2022/07/21 07:37:43;;;;;;;16.53;9.83;;;;;;;;;;4988273;28;20771;-41
2022/07/21 07:40:11;;;;;;;16.57;10.50;;;;;;;;;;4987685;28;20198;-43
2022/07/21 07:42:38;;;;;;;15.17;9.63;;;;;;;;;;4986032;28;20177;-42
2022/07/21 07:45:05;;;;;;;12.43;9.53;;;;;;;;;;4983276;28;20172;-43
2022/07/21 07:47:31;;;;;;;15.83;9.73;;;;;;;;;;4990140;28;20428;-42
2022/07/21 07:49:58;;;;;;;13.13;9.77;;;;;;;;;;4985890;28;21016;-42
2022/07/21 07:52:24;;;;;;;12.63;9.97;;;;;;;;;;4985604;28;20631;-42
2022/07/21 07:54:50;;;;;;;13.53;9.90;;;;;;;;;;4985797;28;20186;-42
2022/07/21 07:57:16;;;;;;;12.60;9.47;;;;;;;;;;4991634;28;20191;-41
2022/07/21 07:59:42;;;;;;;13.60;10.27;;;;;;;;;;4985832;28;20209;-41
2022/07/21 08:02:08;;;;;;;15.10;9.53;;;;;;;;;;4987332;28;20212;-42
2022/07/21 08:04:35;;;;;;;17.27;9.30;;;;;;;;;;4991763;28;20178;-44
2022/07/21 08:07:01;;;;;;;12.70;9.20;;;;;;;;;;4986742;28;20177;-44
2022/07/21 08:09:27;;;;;;;14.63;9.50;;;;;;;;;;4983648;28;20173;-42
2022/07/21 08:11:53;;;;;;;16.43;9.80;;;;;;;;;;4985289;28;20628;-42
2022/07/21 08:14:20;;;;;;;11.67;9.00;;;;;;;;;;4976005;28;20824;-42
2022/07/21 08:16:46;;;;;;;12.10;8.87;;;;;;;;;;4977951;28;21147;-42
2022/07/21 08:19:12;;;;;;;14.17;8.20;;;;;;;;;;4980377;28;21014;-42
2022/07/21 08:21:38;;;;;;;15.30;7.77;;;;;;;;;;4980392;28;20995;-42
2022/07/21 08:24:05;;;;;;;12.23;7.30;;;;;;;;;;4985556;28;20169;-43
2022/07/21 08:26:31;;;;;;;9.70;7.43;;;;;;;;;;4987267;28;20486;-43
2022/07/21 08:28:58;;;;;;;11.30;7.20;;;;;;;;;;4989729;28;20248;-42
2022/07/21 08:31:24;;;;;;;7.33;6.53;;;;;;;;;;4987241;28;20185;-43
2022/07/21 08:33:51;;;;;;;10.00;7.33;;;;;;;;;;4986486;28;20504;-43
2022/07/21 08:36:17;;;;;;;13.10;6.87;;;;;;;;;;4987662;28;20189;-43
2022/07/21 08:38:44;;;;;;;9.40;6.33;;;;;;;;;;4989181;28;20169;-42
2022/07/21 08:41:10;;;;;;;10.60;6.70;;;;;;;;;;4990411;28;20610;-43
2022/07/21 08:43:36;;;;;;;12.17;6.30;;;;;;;;;;4986633;28;20189;-41
2022/07/21 08:46:03;;;;;;;8.60;6.20;;;;;;;;;;4989950;28;20166;-43
2022/07/21 08:48:29;;;;;;;11.80;7.10;;;;;;;;;;4990774;28;20184;-42
2022/07/21 08:50:56;;;;;;;10.77;6.50;;;;;;;;;;4985977;28;20194;-43
2022/07/21 08:53:22;;;;;;;10.60;6.73;;;;;;;;;;4985192;28;20205;-43
2022/07/21 08:55:49;;;;;;;9.53;6.87;;;;;;;;;;4985025;28;20204;-43
2022/07/21 08:58:15;;;;;;;10.87;6.37;;;;;;;;;;4985474;28;21460;-43
2022/07/21 09:00:43;;;;;;;9.00;6.67;;;;;;;;;;4983442;28;20196;-43
2022/07/21 09:03:14;;;;;;;9.93;5.40;;;;;;;;;;5014685;28;20619;-43
2022/07/21 09:05:40;;;;;;;12.00;4.73;;;;;;;;;;4990414;28;20166;-43
2022/07/21 09:08:06;;;;;;;8.00;5.07;;;;;;;;;;4990751;28;20414;-43
2022/07/21 09:10:33;;;;;;;6.67;4.63;;;;;;;;;;4985079;28;20190;-43
2022/07/21 09:13:00;;;;;;;6.40;4.17;;;;;;;;;;4987722;28;20173;-43
2022/07/21 09:15:28;;;;;;;7.50;4.00;;;;;;;;;;4988303;28;20385;-43
2022/07/21 09:18:05;;;;;;;6.67;3.63;;;;;;;;;;4987416;28;20978;-42
2022/07/21 09:20:31;;;;;;;5.23;3.63;;;;;;;;;;4984740;28;20369;-43
2022/07/21 09:23:24;;;;;;;7.13;3.20;;;;;;;;;;4991409;28;20294;-43
2022/07/21 09:25:51;;;;;;;6.33;3.00;;;;;;;;;;4993349;28;20289;-43
2022/07/21 09:28:19;;;;;;;4.73;2.87;;;;;;;;;;4987029;28;20185;-43
2022/07/21 09:31:05;;;;;;;4.90;2.87;;;;;;;;;;4980306;28;20235;-43
2022/07/21 09:33:32;;;;;;;3.47;2.53;;;;;;;;;;4983282;28;20187;-43
2022/07/21 09:36:08;;;;;;;3.67;2.60;;;;;;;;;;4991401;28;20378;-42
2022/07/21 09:38:35;;;;;;;5.30;2.70;;;;;;;;;;4988992;28;20238;-43
2022/07/21 09:41:06;;;;;;;5.83;2.50;;;;;;;;;;4985867;28;20713;-43
2022/07/21 09:43:36;;;;;;;6.93;2.50;;;;;;;;;;4992183;28;20561;-43
2022/07/21 09:46:05;;;;;;;7.50;2.67;;;;;;;;;;4993232;28;20753;-43
2022/07/21 09:48:32;;;;;;;3.93;2.67;;;;;;;;;;4991581;28;20169;-42
2022/07/21 09:51:18;;;;;;;4.93;2.50;;;;;;;;;;4988709;28;20514;-44
2022/07/21 09:53:50;;;;;;;3.87;2.40;;;;;;;;;;4989593;28;20181;-42
2022/07/21 09:56:20;;;;;;;3.70;2.23;;;;;;;;;;4992158;28;20753;-42
2022/07/21 09:58:47;;;;;;;3.87;2.60;;;;;;;;;;4989681;28;20173;-42
2022/07/21 10:01:14;;;;;;;3.17;2.20;;;;;;;;;;4988004;28;20912;-43
2022/07/21 10:03:40;;;;;;;7.07;2.23;;;;;;;;;;4991087;28;20647;-43
2022/07/21 10:06:07;;;;;;;2.97;2.43;;;;;;;;;;4990093;28;20408;-42
2022/07/21 10:08:33;;;;;;;6.87;2.40;;;;;;;;;;4986106;28;20694;-43
2022/07/21 10:11:00;;;;;;;4.63;2.20;;;;;;;;;;4987462;28;20439;-43
2022/07/21 10:13:26;;;;;;;2.23;2.00;;;;;;;;;;4989069;28;20905;-43
2022/07/21 10:15:53;;;;;;;6.20;2.33;;;;;;;;;;4990811;28;20276;-42
2022/07/21 10:18:20;;;;;;;5.20;2.30;;;;;;;;;;4988755;28;20191;-42
2022/07/21 10:20:49;;;;;;;7.63;2.33;;;;;;;;;;4989312;28;20256;-42
2022/07/21 10:23:34;;;;;;;4.83;2.23;;;;;;;;;;4992301;28;20162;-42
2022/07/21 10:26:02;;;;;;;5.13;2.27;;;;;;;;;;4989897;28;20181;-42
2022/07/21 10:28:28;;;;;;;2.20;1.80;;;;;;;;;;4987982;28;20208;-45
2022/07/21 10:30:56;;;;;;;6.43;2.20;;;;;;;;;;4987732;28;20821;-43
2022/07/21 10:33:41;;;;;;;5.30;2.10;;;;;;;;;;4992506;28;20340;-42
2022/07/21 10:36:31;;;;;;;4.90;2.20;;;;;;;;;;4987465;28;20174;-43
2022/07/21 10:39:09;;;;;;;3.47;2.10;;;;;;;;;;4986702;28;20177;-45
2022/07/21 10:41:43;;;;;;;2.23;1.87;;;;;;;;;;4992413;28;20208;-43
2022/07/21 10:44:27;;;;;;;5.07;2.50;;;;;;;;;;4987857;28;20429;-43
2022/07/21 10:47:04;;;;;;;2.83;2.20;;;;;;;;;;4991268;28;20602;-43
2022/07/21 10:49:42;;;;;;;5.57;2.57;;;;;;;;;;4987503;28;20183;-43
2022/07/21 10:52:27;;;;;;;6.67;2.00;;;;;;;;;;4991310;28;20180;-43
2022/07/21 10:55:11;;;;;;;6.03;2.50;;;;;;;;;;4989438;28;20503;-43
2022/07/21 10:57:39;;;;;;;6.60;2.30;;;;;;;;;;4988058;28;20571;-43
2022/07/21 11:00:24;;;;;;;3.43;2.40;;;;;;;;;;4989551;28;20746;-43
2022/07/21 11:02:50;;;;;;;6.13;2.23;;;;;;;;;;4988807;28;20670;-43
2022/07/21 11:05:17;;;;;;;6.03;2.50;;;;;;;;;;4992153;28;20172;-43
2022/07/21 11:08:20;;;;;;;7.53;2.30;;;;;;;;;;4987680;28;20514;-43
2022/07/21 11:10:48;;;;;;;4.97;2.50;;;;;;;;;;4942797;28;20489;-43
2022/07/21 11:13:16;;;;;;;4.67;2.63;;;;;;;;;;4978061;28;20216;-43
2022/07/21 11:16:00;;;;;;;5.77;2.53;;;;;;;;;;4987847;28;20636;-43
2022/07/21 11:18:31;;;;;;;3.60;2.20;;;;;;;;;;4984860;28;20173;-42
2022/07/21 11:21:13;;;;;;;8.63;2.77;;;;;;;;;;4989774;28;20243;-42
2022/07/21 11:23:47;;;;;;;5.63;2.30;;;;;;;;;;4987419;28;20177;-43
2022/07/21 11:26:15;;;;;;;3.40;2.57;;;;;;;;;;4984326;28;20172;-43
2022/07/21 11:28:41;;;;;;;4.63;2.30;;;;;;;;;;4987835;28;20621;-43
2022/07/21 11:31:11;;;;;;;4.87;2.30;;;;;;;;;;4986691;28;20806;-43
2022/07/21 11:33:39;;;;;;;5.70;2.90;;;;;;;;;;4984418;28;20240;-43
2022/07/21 11:36:06;;;;;;;5.40;2.70;;;;;;;;;;4984616;28;20178;-44
2022/07/21 11:38:32;;;;;;;8.27;2.93;;;;;;;;;;4987683;28;20460;-43
2022/07/21 11:41:17;;;;;;;5.90;2.90;;;;;;;;;;4989355;28;20998;-43
2022/07/21 11:43:45;;;;;;;3.53;2.40;;;;;;;;;;4987690;28;20621;-43
2022/07/21 11:46:11;;;;;;;5.53;2.57;;;;;;;;;;4984837;28;20177;-43
2022/07/21 11:48:37;;;;;;;5.97;2.50;;;;;;;;;;4985334;28;20705;-42
2022/07/21 11:51:04;;;;;;;5.97;2.50;;;;;;;;;;4989137;28;20264;-42
2022/07/21 11:53:31;;;;;;;3.43;2.43;;;;;;;;;;4984727;28;20220;-42
2022/07/21 11:55:57;;;;;;;4.13;2.73;;;;;;;;;;4988585;28;20595;-43
2022/07/21 11:58:23;;;;;;;5.37;2.77;;;;;;;;;;4987716;28;20177;-43
2022/07/21 12:00:49;;;;;;;5.83;2.60;;;;;;;;;;4985726;28;20201;-42
2022/07/21 12:03:15;;;;;;;4.87;2.40;;;;;;;;;;4985683;28;20708;-43
2022/07/21 12:05:42;;;;;;;5.00;2.70;;;;;;;;;;4985268;28;20664;-42
2022/07/21 12:08:08;;;;;;;5.00;2.63;;;;;;;;;;4986659;28;20163;-42
2022/07/21 12:10:37;;;;;;;6.87;2.93;;;;;;;;;;4988826;28;20189;-42
2022/07/21 12:13:04;;;;;;;8.33;2.90;;;;;;;;;;4986770;28;20591;-43
2022/07/21 12:15:37;;;;;;;4.33;2.50;;;;;;;;;;4983350;28;20177;-42
2022/07/21 12:18:06;;;;;;;4.40;2.93;;;;;;;;;;4987779;28;20812;-42
2022/07/21 12:20:33;;;;;;;9.00;3.33;;;;;;;;;;4986727;28;20196;-41
2022/07/21 12:23:01;;;;;;;6.13;2.60;;;;;;;;;;4987373;28;20182;-42
2022/07/21 12:25:33;;;;;;;7.80;3.23;;;;;;;;;;4987006;28;20701;-42
2022/07/21 12:27:59;;;;;;;4.97;2.60;;;;;;;;;;4988193;28;20177;-42
2022/07/21 12:30:45;;;;;;;5.83;2.67;;;;;;;;;;5017092;28;20210;-42
2022/07/21 12:33:15;;;;;;;4.57;2.63;;;;;;;;;;5002339;28;20179;-42
2022/07/21 12:35:43;;;;;;;5.27;2.90;;;;;;;;;;4991226;28;20184;-42
2022/07/21 12:38:10;;;;;;;5.23;2.80;;;;;;;;;;4994192;28;20634;-42
2022/07/21 12:40:38;;;;;;;5.07;2.70;;;;;;;;;;4987808;28;20629;-42
2022/07/21 12:43:04;;;;;;;6.37;2.80;;;;;;;;;;4986724;28;20510;-42
2022/07/21 12:45:30;;;;;;;4.70;3.00;;;;;;;;;;4989459;28;20193;-43
2022/07/21 12:48:09;;;;;;;5.17;3.27;;;;;;;;;;4989612;28;20172;-43
2022/07/21 12:50:38;;;;;;;4.53;2.63;;;;;;;;;;4993415;28;20243;-43
2022/07/21 12:53:05;;;;;;;5.77;2.50;;;;;;;;;;4991435;28;20192;-43
2022/07/21 12:55:31;;;;;;;3.13;2.60;;;;;;;;;;4991877;28;20274;-43
2022/07/21 12:57:57;;;;;;;5.87;2.60;;;;;;;;;;4986579;28;20221;-43
2022/07/21 13:00:23;;;;;;;2.95;2.30;;;;;;;;;;4990549;28;20208;-43
2022/07/21 13:02:51;;;;;;;10.03;2.73;;;;;;;;;;4994277;28;20180;-44
2022/07/21 13:05:17;;;;;;;7.75;2.50;;;;;;;;;;4990813;28;20277;-44
2022/07/21 13:07:44;;;;;;;7.57;2.53;;;;;;;;;;4988683;28;20173;-44
2022/07/21 13:10:10;;;;;;;5.18;2.50;;;;;;;;;;4992546;28;20239;-44
2022/07/21 13:12:36;;;;;;;5.03;2.75;;;;;;;;;;4990203;28;20199;-44
2022/07/21 13:15:03;;;;;;;3.78;2.83;;;;;;;;;;4989190;28;20169;-43
2022/07/21 13:17:29;;;;;;;8.57;3.00;;;;;;;;;;4990226;28;20177;-44
2022/07/21 13:19:55;;;;;;;4.07;2.65;;;;;;;;;;4989070;28;20426;-44
2022/07/21 13:22:22;;;;;;;4.25;2.53;;;;;;;;;;4993282;28;20169;-44
2022/07/21 13:24:48;;;;;;;5.72;2.63;;;;;;;;;;5014994;28;20251;-44
2022/07/21 13:27:14;;;;;;;6.03;2.92;;;;;;;;;;4984202;28;20240;-44
2022/07/21 13:29:40;;;;;;;4.30;2.50;;;;;;;;;;4981260;28;20174;-44
2022/07/21 13:32:07;;;;;;;4.22;2.90;;;;;;;;;;4981012;28;20702;-44
2022/07/21 13:34:33;;;;;;;4.65;2.85;;;;;;;;;;4978992;28;20487;-44
2022/07/21 13:36:59;;;;;;;4.20;3.13;;;;;;;;;;4980697;28;20256;-44
2022/07/21 13:39:29;;;;;;;4.05;3.05;;;;;;;;;;4983163;28;20182;-44
2022/07/21 13:41:55;;;;;;;4.10;3.00;;;;;;;;;;4981200;28;20323;-44
2022/07/21 13:44:21;;;;;;;6.80;2.90;;;;;;;;;;4978611;28;20662;-44
2022/07/21 13:46:47;;;;;;;5.30;2.92;;;;;;;;;;4979286;28;20184;-44
2022/07/21 13:49:14;;;;;;;3.25;2.80;;;;;;;;;;4981038;28;20265;-44
2022/07/21 13:51:40;;;;;;;4.50;3.13;;;;;;;;;;4978437;28;20177;-44
2022/07/21 13:54:06;;;;;;;4.28;2.97;;;;;;;;;;4976677;28;20542;-44
2022/07/21 13:56:32;;;;;;;6.07;2.80;;;;;;;;;;4979788;28;20185;-44
2022/07/21 13:58:58;;;;;;;3.20;2.80;;;;;;;;;;4985636;28;20546;-50
2022/07/21 14:01:24;;;;;;;6.35;3.15;;;;;;;;;;4987748;28;20816;-44
2022/07/21 14:03:51;;;;;;;5.38;3.22;;;;;;;;;;4990380;28;20638;-44
2022/07/21 14:06:17;;;;;;;7.22;3.10;;;;;;;;;;4991382;28;20288;-44
2022/07/21 14:08:44;;;;;;;5.65;3.08;;;;;;;;;;4986048;28;20188;-44
2022/07/21 14:11:13;;;;;;;4.78;3.00;;;;;;;;;;4986010;28;20992;-44
2022/07/21 14:13:39;;;;;;;5.35;3.10;;;;;;;;;;4988127;28;20658;-44
2022/07/21 14:16:06;;;;;;;3.88;2.63;;;;;;;;;;4986063;28;20177;-44
2022/07/21 14:18:32;;;;;;;8.48;3.30;;;;;;;;;;4986237;28;20184;-44
2022/07/21 14:20:58;;;;;;;7.70;3.45;;;;;;;;;;4985854;28;20311;-44
2022/07/21 14:23:24;;;;;;;6.63;2.78;;;;;;;;;;4979786;28;20263;-44
2022/07/21 14:25:51;;;;;;;3.72;3.20;;;;;;;;;;4975941;28;20645;-44
2022/07/21 14:28:17;;;;;;;6.43;3.17;;;;;;;;;;4977599;28;20606;-44
2022/07/21 14:30:43;;;;;;;5.25;3.25;;;;;;;;;;4975974;28;20530;-45
2022/07/21 14:33:10;;;;;;;5.50;3.60;;;;;;;;;;4976976;28;20184;-44